createdAt,value
2022-08-14T00:00:15.166Z,101724.19
2022-08-14T00:02:43.015Z,101725.34
2022-08-14T00:05:13.611Z,101728.72
2022-08-14T00:07:42.080Z,101722.09
2022-08-14T00:10:52.465Z,101727.28
2022-08-14T00:12:58.826Z,101726.72
2022-08-14T00:15:37.382Z,101722.25
2022-08-14T00:18:14.662Z,101722.25
2022-08-14T00:20:57.801Z,101729.59
2022-08-14T00:23:25.870Z,101730.50
2022-08-14T00:26:05.785Z,101730.72
2022-08-14T00:28:35.732Z,101727.59
2022-08-14T00:31:04.617Z,101726.31
2022-08-14T00:33:51.125Z,101730.22
2022-08-14T00:36:37.141Z,101730.22
2022-08-14T00:39:06.527Z,101728.22
2022-08-14T00:41:36.297Z,101728.91
2022-08-14T00:44:05.914Z,101724.50
2022-08-14T00:46:33.712Z,101731.75
2022-08-14T00:49:02.193Z,101724.03
2022-08-14T00:51:36.740Z,101725.28
2022-08-14T00:54:20.831Z,101717.56
2022-08-14T00:56:55.566Z,101724.22
2022-08-14T00:59:27.536Z,101726.13
2022-08-14T01:01:59.738Z,101729.78
2022-08-14T01:04:38.101Z,101723.44
2022-08-14T01:07:19.859Z,101737.50
2022-08-14T01:09:58.927Z,101736.22
2022-08-14T01:12:30.196Z,101731.69
2022-08-14T01:15:09.336Z,101729.16
2022-08-14T01:17:54.852Z,101726.75
2022-08-14T01:20:41.191Z,101724.31
2022-08-14T01:23:15.833Z,101727.16
2022-08-14T01:25:46.013Z,101730.81
2022-08-14T01:28:46.938Z,101729.25
2022-08-14T01:31:00.069Z,101731.31
2022-08-14T01:33:30.168Z,101723.75
2022-08-14T01:36:05.143Z,101728.66
2022-08-14T01:38:37.304Z,101731.78
2022-08-14T01:41:15.963Z,101731.94
2022-08-14T01:43:56.626Z,101722.50
2022-08-14T01:46:25.409Z,101728.28
2022-08-14T01:49:02.354Z,101726.00
2022-08-14T01:51:30.605Z,101721.03
2022-08-14T01:54:05.870Z,101719.47
2022-08-14T01:56:41.025Z,101720.59
2022-08-14T01:59:21.837Z,101716.22
2022-08-14T02:01:58.495Z,101719.00
2022-08-14T02:04:54.804Z,101718.84
2022-08-14T02:07:34.163Z,101713.66
2022-08-14T02:10:06.835Z,101711.03
2022-08-14T02:12:33.678Z,101707.63
2022-08-14T02:15:01.770Z,101712.25
2022-08-14T02:17:29.298Z,101710.47
2022-08-14T02:19:57.681Z,101720.19
2022-08-14T02:22:32.701Z,101712.84
2022-08-14T02:25:00.914Z,101714.34
2022-08-14T02:28:21.978Z,101716.78
2022-08-14T02:30:16.005Z,101720.97
2022-08-14T02:32:43.242Z,101718.03
2022-08-14T02:35:18.979Z,101712.31
2022-08-14T02:37:49.307Z,101702.28
2022-08-14T02:40:20.908Z,101707.41
2022-08-14T02:42:59.996Z,101711.91
2022-08-14T02:45:38.864Z,101713.72
2022-08-14T02:49:03.349Z,101709.38
2022-08-14T02:51:00.813Z,101703.16
2022-08-14T02:53:29.275Z,101699.59
2022-08-14T02:55:56.692Z,101699.34
2022-08-14T02:58:31.142Z,101702.81
2022-08-14T03:00:59.596Z,101699.34
2022-08-14T03:03:27.975Z,101699.59
2022-08-14T03:05:58.883Z,101699.75
2022-08-14T03:08:31.817Z,101693.69
2022-08-14T03:11:07.653Z,101702.00
2022-08-14T03:13:51.555Z,101701.03
2022-08-14T03:16:26.835Z,101706.97
2022-08-14T03:18:58.321Z,101702.38
2022-08-14T03:21:26.664Z,101698.63
2022-08-14T03:24:16.346Z,101696.59
2022-08-14T03:26:49.808Z,101700.22
2022-08-14T03:29:24.611Z,101701.25
2022-08-14T03:31:53.452Z,101697.00
2022-08-14T03:34:24.559Z,101694.66
2022-08-14T03:37:28.457Z,101699.53
2022-08-14T03:39:57.284Z,101697.13
2022-08-14T03:42:25.224Z,101696.25
2022-08-14T03:45:27.469Z,101695.63
2022-08-14T03:47:58.939Z,101699.59
2022-08-14T03:50:31.621Z,101699.94
2022-08-14T03:53:03.141Z,101694.72
2022-08-14T03:55:31.033Z,101696.59
2022-08-14T03:58:00.513Z,101697.41
2022-08-14T04:00:44.314Z,101690.97
2022-08-14T04:03:15.393Z,101690.59
2022-08-14T04:05:48.828Z,101691.22
2022-08-14T04:08:29.522Z,101697.38
2022-08-14T04:11:02.003Z,101691.06
2022-08-14T04:13:33.935Z,101694.44
2022-08-14T04:16:14.182Z,101689.88
2022-08-14T04:18:47.016Z,101690.63
2022-08-14T04:21:16.242Z,101693.25
2022-08-14T04:23:44.294Z,101690.31
2022-08-14T04:26:14.457Z,101700.19
2022-08-14T04:29:05.258Z,101693.00
2022-08-14T04:33:01.722Z,101700.03
2022-08-14T04:34:27.440Z,101686.50
2022-08-14T04:37:13.694Z,101692.50
2022-08-14T04:40:08.728Z,101690.50
2022-08-14T04:42:54.553Z,101687.66
2022-08-14T04:45:23.825Z,101694.59
2022-08-14T04:48:10.486Z,101697.13
2022-08-14T04:50:44.296Z,101696.09
2022-08-14T04:53:18.950Z,101697.56
2022-08-14T04:55:51.756Z,101694.63
2022-08-14T04:58:32.800Z,101688.88
2022-08-14T05:01:01.976Z,101695.75
2022-08-14T05:03:32.613Z,101695.41
2022-08-14T05:06:03.184Z,101691.53
2022-08-14T05:08:50.609Z,101683.97
2022-08-14T05:11:19.852Z,101688.16
2022-08-14T05:14:33.756Z,101683.28
2022-08-14T05:16:33.284Z,101682.94
2022-08-14T05:19:18.973Z,101683.53
2022-08-14T05:21:58.293Z,101686.91
2022-08-14T05:24:27.651Z,101688.38
2022-08-14T05:26:54.357Z,101689.75
2022-08-14T05:29:22.454Z,101690.38
2022-08-14T05:31:49.120Z,101689.91
2022-08-14T05:34:23.709Z,101687.72
2022-08-14T05:37:02.405Z,101691.69
2022-08-14T05:39:31.132Z,101683.16
2022-08-14T05:41:58.232Z,101692.63
2022-08-14T05:44:29.639Z,101689.53
2022-08-14T05:46:57.444Z,101691.69
2022-08-14T05:49:26.230Z,101691.22
2022-08-14T05:52:01.663Z,101693.44
2022-08-14T05:54:33.958Z,101688.44
2022-08-14T05:57:04.459Z,101693.28
2022-08-14T05:59:36.643Z,101690.94
2022-08-14T06:02:06.902Z,101691.31
2022-08-14T06:04:33.501Z,101698.84
2022-08-14T06:07:00.063Z,101692.88
2022-08-14T06:09:26.664Z,101696.81
2022-08-14T06:11:53.254Z,101697.22
2022-08-14T06:14:24.031Z,101688.50
2022-08-14T06:16:53.044Z,101684.34
2022-08-14T06:19:20.244Z,101687.41
2022-08-14T06:21:54.396Z,101681.59
2022-08-14T06:24:25.942Z,101677.44
2022-08-14T06:26:56.702Z,101680.59
2022-08-14T06:29:32.175Z,101682.78
2022-08-14T06:32:00.083Z,101678.81
2022-08-14T06:35:02.634Z,101679.19
2022-08-14T06:37:16.817Z,101684.16
2022-08-14T06:39:44.258Z,101681.81
2022-08-14T06:42:32.587Z,101681.25
2022-08-14T06:44:58.450Z,101677.94
2022-08-14T06:47:25.197Z,101682.94
2022-08-14T06:49:57.726Z,101682.38
2022-08-14T06:52:25.204Z,101686.38
2022-08-14T06:54:52.025Z,101678.72
2022-08-14T06:57:18.679Z,101674.72
2022-08-14T06:59:48.206Z,101675.03
2022-08-14T07:02:35.988Z,101687.06
2022-08-14T07:05:22.994Z,101681.13
2022-08-14T07:07:51.366Z,101681.53
2022-08-14T07:10:18.541Z,101681.97
2022-08-14T07:13:01.566Z,101676.13
2022-08-14T07:15:32.387Z,101681.81
2022-08-14T07:18:00.644Z,101671.44
2022-08-14T07:20:30.906Z,101673.69
2022-08-14T07:23:03.926Z,101668.56
2022-08-14T07:25:37.453Z,101681.41
2022-08-14T07:28:23.674Z,101672.72
2022-08-14T07:31:04.214Z,101672.09
2022-08-14T07:33:36.176Z,101671.50
2022-08-14T07:36:17.554Z,101672.53
2022-08-14T07:38:52.607Z,101676.91
2022-08-14T07:41:19.469Z,101678.69
2022-08-14T07:43:53.008Z,101682.41
2022-08-14T07:46:28.348Z,101668.13
2022-08-14T07:48:57.015Z,101669.94
2022-08-14T07:51:24.448Z,101667.22
2022-08-14T07:53:57.138Z,101663.56
2022-08-14T07:56:48.112Z,101670.44
2022-08-14T07:59:11.632Z,101658.41
2022-08-14T08:01:48.036Z,101664.06
2022-08-14T08:04:25.226Z,101652.19
2022-08-14T08:06:54.104Z,101658.28
2022-08-14T08:09:31.912Z,101651.09
2022-08-14T08:12:04.618Z,101648.47
2022-08-14T08:14:56.957Z,101651.03
2022-08-14T08:17:24.110Z,101651.91
2022-08-14T08:19:51.674Z,101651.03
2022-08-14T08:22:19.226Z,101649.31
2022-08-14T08:24:46.192Z,101655.00
2022-08-14T08:27:17.866Z,101652.31
2022-08-14T08:29:51.034Z,101653.28
2022-08-14T08:32:18.023Z,101655.00
2022-08-14T08:34:46.555Z,101646.13
2022-08-14T08:37:15.073Z,101644.16
2022-08-14T08:40:03.039Z,101645.75
2022-08-14T08:42:38.217Z,101647.06
2022-08-14T08:45:12.184Z,101644.94
2022-08-14T08:47:41.592Z,101646.28
2022-08-14T08:50:23.134Z,101637.63
2022-08-14T08:53:00.397Z,101642.78
2022-08-14T08:55:32.023Z,101631.50
2022-08-14T08:58:08.889Z,101634.56
2022-08-14T09:00:46.238Z,101635.75
2022-08-14T09:03:22.191Z,101628.03
2022-08-14T09:05:54.091Z,101624.94
2022-08-14T09:08:30.377Z,101624.56
2022-08-14T09:11:00.595Z,101626.00
2022-08-14T09:13:27.304Z,101628.19
2022-08-14T09:15:57.200Z,101619.50
2022-08-14T09:18:24.125Z,101618.94
2022-08-14T09:20:58.822Z,101621.84
2022-08-14T09:23:27.352Z,101622.16
2022-08-14T09:26:02.011Z,101619.84
2022-08-14T09:28:31.746Z,101625.75
2022-08-14T09:31:17.360Z,101613.47
2022-08-14T09:34:19.754Z,101614.75
2022-08-14T09:37:11.464Z,101613.09
2022-08-14T09:39:57.799Z,101596.22
2022-08-14T09:42:36.586Z,101601.53
2022-08-14T09:45:19.193Z,101594.53
2022-08-14T09:47:48.948Z,101602.81
2022-08-14T09:50:39.423Z,101594.09
2022-08-14T09:53:18.181Z,101594.38
2022-08-14T09:55:45.895Z,101597.25
2022-08-14T09:58:22.797Z,101595.69
2022-08-14T10:00:54.436Z,101602.16
2022-08-14T10:03:33.901Z,101597.84
2022-08-14T10:06:21.351Z,101592.25
2022-08-14T10:08:54.325Z,101598.84
2022-08-14T10:11:35.146Z,101589.91
2022-08-14T10:14:29.282Z,101596.50
2022-08-14T10:17:06.011Z,101594.03
2022-08-14T10:19:36.453Z,101587.84
2022-08-14T10:23:11.311Z,101603.34
2022-08-14T10:25:00.047Z,101582.78
2022-08-14T10:27:28.762Z,101594.97
2022-08-14T10:30:04.605Z,101579.03
2022-08-14T10:32:41.817Z,101585.03
2022-08-14T10:35:13.552Z,101578.25
2022-08-14T10:37:52.352Z,101570.47
2022-08-14T10:40:38.515Z,101567.16
2022-08-14T10:43:26.529Z,101562.97
2022-08-14T10:45:59.955Z,101555.16
2022-08-14T10:48:54.989Z,101558.00
2022-08-14T10:51:26.456Z,101562.00
2022-08-14T10:53:58.426Z,101554.53
2022-08-14T10:56:35.180Z,101563.72
2022-08-14T10:59:04.458Z,101555.38
2022-08-14T11:01:38.662Z,101555.94
2022-08-14T11:04:20.424Z,101557.03
2022-08-14T11:06:53.977Z,101570.06
2022-08-14T11:09:21.208Z,101563.13
2022-08-14T11:12:34.926Z,101562.41
2022-08-14T11:15:02.556Z,101562.25
2022-08-14T11:17:32.369Z,101554.63
2022-08-14T11:20:01.597Z,101562.16
2022-08-14T11:22:55.784Z,101561.41
2022-08-14T11:25:21.270Z,101556.84
2022-08-14T11:27:49.068Z,101565.00
2022-08-14T11:30:50.161Z,101552.06
2022-08-14T11:33:29.179Z,101558.91
2022-08-14T11:35:59.707Z,101563.19
2022-08-14T11:38:37.853Z,101553.69
2022-08-14T11:41:06.361Z,101562.78
2022-08-14T11:43:55.957Z,101548.16
2022-08-14T11:46:30.259Z,101552.81
2022-08-14T11:49:05.626Z,101546.00
2022-08-14T11:51:35.989Z,101554.06
2022-08-14T11:54:19.411Z,101549.97
2022-08-14T11:56:50.666Z,101549.81
2022-08-14T11:59:26.541Z,101542.50
2022-08-14T12:03:00.856Z,101546.91
2022-08-14T12:05:00.696Z,101544.97
2022-08-14T12:07:31.196Z,101544.31
2022-08-14T12:09:59.475Z,101546.72
2022-08-14T12:12:35.669Z,101538.03
2022-08-14T12:15:06.884Z,101534.97
2022-08-14T12:17:49.372Z,101530.88
2022-08-14T12:20:29.890Z,101537.72
2022-08-14T12:23:01.242Z,101532.13
2022-08-14T12:25:29.209Z,101533.09
2022-08-14T12:27:59.079Z,101527.50
2022-08-14T12:30:42.437Z,101518.63
2022-08-14T12:33:33.797Z,101530.56
2022-08-14T12:36:09.942Z,101518.25
2022-08-14T12:38:43.734Z,101524.09
2022-08-14T12:41:21.411Z,101518.81
2022-08-14T12:43:51.564Z,101512.00
2022-08-14T12:46:27.280Z,101514.72
2022-08-14T12:48:57.384Z,101510.63
2022-08-14T12:51:27.591Z,101505.16
2022-08-14T12:53:59.438Z,101501.72
2022-08-14T12:56:33.274Z,101503.69
2022-08-14T12:59:04.700Z,101502.31
2022-08-14T13:02:00.070Z,101499.59
2022-08-14T13:04:21.654Z,101506.28
2022-08-14T13:06:51.516Z,101502.03
2022-08-14T13:09:19.445Z,101497.41
2022-08-14T13:11:58.899Z,101493.47
2022-08-14T13:14:38.464Z,101489.03
2022-08-14T13:17:05.574Z,101492.78
2022-08-14T13:19:35.633Z,101489.22
2022-08-14T13:22:10.161Z,101482.00
2022-08-14T13:24:48.132Z,101489.22
2022-08-14T13:27:15.857Z,101484.06
2022-08-14T13:29:47.366Z,101478.22
2022-08-14T13:32:14.919Z,101485.44
2022-08-14T13:34:45.373Z,101480.31
2022-08-14T13:37:15.599Z,101474.97
2022-08-14T13:39:56.308Z,101476.72
2022-08-14T13:42:26.579Z,101481.81
2022-08-14T13:45:02.404Z,101480.63
2022-08-14T13:47:31.407Z,101479.63
2022-08-14T13:50:04.627Z,101472.59
2022-08-14T13:52:51.469Z,101469.16
2022-08-14T13:55:28.018Z,101469.50
2022-08-14T13:58:04.157Z,101463.38
2022-08-14T14:00:53.414Z,101459.59
2022-08-14T14:03:25.511Z,101461.81
2022-08-14T14:05:57.331Z,101451.88
2022-08-14T14:08:45.796Z,101441.97
2022-08-14T14:11:14.185Z,101453.25
2022-08-14T14:13:45.122Z,101449.00
2022-08-14T14:16:15.501Z,101447.78
2022-08-14T14:19:06.057Z,101440.22
2022-08-14T14:21:34.566Z,101442.91
2022-08-14T14:24:01.262Z,101446.84
2022-08-14T14:26:29.435Z,101443.69
2022-08-14T14:29:01.759Z,101438.00
2022-08-14T14:31:31.122Z,101442.22
2022-08-14T14:34:01.151Z,101431.91
2022-08-14T14:36:35.892Z,101433.47
2022-08-14T14:39:08.141Z,101439.94
2022-08-14T14:41:43.839Z,101431.00
2022-08-14T14:44:16.102Z,101428.72
2022-08-14T14:46:53.027Z,101432.88
2022-08-14T14:49:25.939Z,101432.88
2022-08-14T14:52:17.172Z,101425.31
2022-08-14T14:54:50.475Z,101427.56
2022-08-14T14:57:19.285Z,101421.94
2022-08-14T14:59:46.046Z,101424.38
2022-08-14T15:02:43.567Z,101426.69
2022-08-14T15:05:12.649Z,101422.31
2022-08-14T15:07:39.379Z,101431.94
2022-08-14T15:10:26.866Z,101416.91
2022-08-14T15:12:56.091Z,101420.34
2022-08-14T15:15:24.728Z,101418.97
2022-08-14T15:17:54.671Z,101416.59
2022-08-14T15:20:30.093Z,101412.16
2022-08-14T15:23:08.026Z,101413.22
2022-08-14T15:25:40.545Z,101413.91
2022-08-14T15:28:11.444Z,101422.13
2022-08-14T15:30:41.321Z,101421.25
2022-08-14T15:33:08.918Z,101433.25
2022-08-14T15:35:35.836Z,101422.81
2022-08-14T15:38:11.394Z,101424.00
2022-08-14T15:40:44.106Z,101429.94
2022-08-14T15:43:17.912Z,101417.63
2022-08-14T15:45:45.114Z,101418.81
2022-08-14T15:48:18.410Z,101420.69
2022-08-14T15:50:50.788Z,101418.88
2022-08-14T15:53:18.513Z,101419.56
2022-08-14T15:55:46.560Z,101419.38
2022-08-14T15:58:15.233Z,101417.34
2022-08-14T16:01:00.655Z,101415.09
2022-08-14T16:03:35.806Z,101403.13
2022-08-14T16:06:10.533Z,101410.13
2022-08-14T16:08:38.629Z,101407.56
2022-08-14T16:11:07.900Z,101408.09
2022-08-14T16:13:47.851Z,101408.09
2022-08-14T16:16:47.269Z,101397.47
2022-08-14T16:19:11.129Z,101412.38
2022-08-14T16:22:02.078Z,101399.53
2022-08-14T16:24:33.366Z,101408.63
2022-08-14T16:27:01.390Z,101414.41
2022-08-14T16:29:31.004Z,101410.84
2022-08-14T16:32:01.774Z,101403.31
2022-08-14T16:34:50.995Z,101406.38
2022-08-14T16:37:21.289Z,101411.16
2022-08-14T16:39:54.101Z,101399.88
2022-08-14T16:43:02.387Z,101400.56
2022-08-14T16:45:12.055Z,101402.28
2022-08-14T16:47:40.095Z,101408.78
2022-08-14T16:50:43.037Z,101405.78
2022-08-14T16:53:07.350Z,101394.66
2022-08-14T16:55:53.223Z,101399.09
2022-08-14T16:58:30.312Z,101397.53
2022-08-14T17:01:22.838Z,101392.59
2022-08-14T17:04:09.225Z,101392.44
2022-08-14T17:06:51.003Z,101385.09
2022-08-14T17:09:27.756Z,101388.88
2022-08-14T17:12:28.372Z,101384.72
2022-08-14T17:15:11.097Z,101388.41
2022-08-14T17:17:40.810Z,101387.47
2022-08-14T17:20:39.518Z,101385.69
2022-08-14T17:23:11.055Z,101401.13
2022-08-14T17:25:39.057Z,101398.97
2022-08-14T17:28:49.926Z,101398.59
2022-08-14T17:31:05.566Z,101404.31
2022-08-14T17:33:40.562Z,101397.56
2022-08-14T17:36:46.469Z,101401.00
2022-08-14T17:39:17.773Z,101395.22
2022-08-14T17:42:03.286Z,101400.75
2022-08-14T17:44:33.799Z,101401.00
2022-08-14T17:47:10.712Z,101409.72
2022-08-14T17:49:52.112Z,101409.06
2022-08-14T17:52:36.268Z,101402.78
2022-08-14T17:56:00.198Z,101400.75
2022-08-14T17:57:58.342Z,101403.97
2022-08-14T18:00:25.685Z,101404.16
2022-08-14T18:02:54.575Z,101406.19
2022-08-14T18:06:09.732Z,101410.94
2022-08-14T18:08:33.895Z,101409.31
2022-08-14T18:11:00.353Z,101402.41
2022-08-14T18:13:50.793Z,101408.41
2022-08-14T18:16:19.758Z,101407.09
2022-08-14T18:18:51.238Z,101402.34
2022-08-14T18:21:40.516Z,101404.38
2022-08-14T18:24:28.209Z,101412.50
2022-08-14T18:27:14.950Z,101418.81
2022-08-14T18:29:55.501Z,101413.28
2022-08-14T18:32:31.541Z,101412.34
2022-08-14T18:35:13.376Z,101417.25
2022-08-14T18:37:55.978Z,101428.94
2022-08-14T18:40:34.956Z,101422.34
2022-08-14T18:43:05.027Z,101420.91
2022-08-14T18:45:43.065Z,101424.91
2022-08-14T18:48:19.992Z,101419.88
2022-08-14T18:50:56.570Z,101428.25
2022-08-14T18:53:25.486Z,101425.66
2022-08-14T18:56:09.737Z,101428.59
2022-08-14T18:58:56.910Z,101436.00
2022-08-14T19:01:30.296Z,101434.09
2022-08-14T19:03:59.113Z,101428.00
2022-08-14T19:06:38.294Z,101425.91
2022-08-14T19:09:05.351Z,101427.69
2022-08-14T19:11:34.249Z,101434.38
2022-08-14T19:16:43.170Z,101428.53
2022-08-14T19:19:15.416Z,101434.50
2022-08-14T19:21:55.475Z,101424.91
2022-08-14T19:24:34.215Z,101431.69
2022-08-14T19:27:24.143Z,101434.19
2022-08-14T19:30:20.197Z,101428.16
2022-08-14T19:32:55.880Z,101430.28
2022-08-14T19:35:48.968Z,101428.56
2022-08-14T19:38:53.823Z,101428.81
2022-08-14T19:41:30.230Z,101430.19
2022-08-14T19:44:10.109Z,101431.69
2022-08-14T19:47:00.438Z,101432.69
2022-08-14T19:50:08.292Z,101438.75
2022-08-14T19:52:25.610Z,101440.41
2022-08-14T19:54:53.148Z,101449.03
2022-08-14T19:57:29.150Z,101434.38
2022-08-14T20:00:28.579Z,101440.38
2022-08-14T20:03:10.706Z,101443.59
2022-08-14T20:05:45.792Z,101443.84
2022-08-14T20:11:07.028Z,101441.41
2022-08-14T20:11:15.866Z,101444.84
2022-08-14T20:14:09.520Z,101445.31
2022-08-14T20:16:41.073Z,101440.63
2022-08-14T20:19:22.356Z,101440.28
2022-08-14T20:22:04.726Z,101437.47
2022-08-14T20:24:49.915Z,101444.69
2022-08-14T20:27:22.737Z,101439.75
2022-08-14T20:30:33.567Z,101443.66
2022-08-14T20:33:07.966Z,101433.91
2022-08-14T20:35:44.266Z,101435.16
2022-08-14T20:38:31.324Z,101436.84
2022-08-14T20:41:12.471Z,101431.03
2022-08-14T20:43:59.794Z,101426.63
2022-08-14T20:46:38.820Z,101434.50
2022-08-14T20:49:16.716Z,101431.19
2022-08-14T20:51:59.537Z,101432.63
2022-08-14T20:54:33.836Z,101435.03
2022-08-14T20:57:15.712Z,101433.06
2022-08-14T20:59:53.414Z,101435.38
2022-08-14T21:02:34.190Z,101440.38
2022-08-14T21:05:16.489Z,101438.88
2022-08-14T21:07:50.933Z,101442.78
2022-08-14T21:10:36.057Z,101444.94
2022-08-14T21:13:26.613Z,101446.03
2022-08-14T21:15:57.719Z,101442.91
2022-08-14T21:18:35.238Z,101442.41
2022-08-14T21:21:18.053Z,101440.50
2022-08-14T21:23:55.882Z,101440.94
2022-08-14T21:26:50.985Z,101440.53
2022-08-14T21:29:15.302Z,101444.66
2022-08-14T21:31:55.777Z,101438.72
2022-08-14T21:34:31.626Z,101441.63
2022-08-14T21:37:09.171Z,101440.16
2022-08-14T21:39:38.724Z,101441.34
2022-08-14T21:42:06.320Z,101443.41
2022-08-14T21:44:43.590Z,101449.88
2022-08-14T21:47:12.665Z,101434.53
2022-08-14T21:49:40.109Z,101444.47
2022-08-14T21:52:50.893Z,101442.84
2022-08-14T21:55:09.074Z,101438.88
2022-08-14T21:58:45.973Z,101425.69
2022-08-14T22:00:36.238Z,101428.38
2022-08-14T22:03:06.416Z,101426.66
2022-08-14T22:05:37.853Z,101423.34
2022-08-14T22:08:06.610Z,101420.22
2022-08-14T22:10:35.073Z,101418.78
2022-08-14T22:13:02.159Z,101416.66
2022-08-14T22:15:32.874Z,101413.41
2022-08-14T22:18:00.450Z,101415.34
2022-08-14T22:20:29.586Z,101411.25
2022-08-14T22:22:57.688Z,101410.38
2022-08-14T22:25:33.754Z,101401.66
2022-08-14T22:28:05.789Z,101396.59
2022-08-14T22:30:34.431Z,101394.84
2022-08-14T22:33:01.746Z,101399.38
2022-08-14T22:35:29.370Z,101402.41
2022-08-14T22:38:32.634Z,101393.75
2022-08-14T22:41:07.862Z,101385.34
2022-08-14T22:43:32.012Z,101388.38
2022-08-14T22:46:02.488Z,101384.06
2022-08-14T22:48:30.065Z,101387.94
2022-08-14T22:50:57.035Z,101392.00
2022-08-14T22:53:24.427Z,101386.81
2022-08-14T22:55:56.794Z,101383.34
2022-08-14T22:58:30.370Z,101375.38
2022-08-14T23:01:01.242Z,101375.59
2022-08-14T23:03:30.425Z,101384.09
2022-08-14T23:06:02.248Z,101376.31
2022-08-14T23:08:58.331Z,101376.63
2022-08-14T23:11:15.964Z,101372.75
2022-08-14T23:13:43.651Z,101367.28
2022-08-14T23:16:19.894Z,101362.63
2022-08-14T23:18:53.770Z,101362.53
2022-08-14T23:21:24.671Z,101360.91
2022-08-14T23:23:54.901Z,101362.63
2022-08-14T23:26:48.072Z,101362.41
2022-08-14T23:29:11.833Z,101363.38
2022-08-14T23:31:39.554Z,101358.13
2022-08-14T23:34:09.357Z,101358.13
2022-08-14T23:36:54.235Z,101357.34
2022-08-14T23:39:30.236Z,101347.97
2022-08-14T23:42:02.595Z,101352.78
2022-08-14T23:44:35.390Z,101358.38
2022-08-14T23:47:10.964Z,101356.97
2022-08-14T23:49:59.995Z,101359.09
2022-08-14T23:52:55.680Z,101351.16
2022-08-14T23:55:16.929Z,101355.00
2022-08-14T23:57:58.584Z,101351.00
